Time;durP1;ratioP1;P1;durP2;ratioP2;P2;SDS_P1;SDS_P2;PMS_P1;PMS_P2;Temp;Humidity;BMP_temperature;BMP_pressure;BME280_temperature;BME280_humidity;BME280_pressure;Samples;Min_cycle;Max_cycle;Signal;HPM_P1;HPM_P2
2022/11/29 00:00:19;;;;;;;12.05;8.02;;;15.70;74.00;;;;;;10367771;28;20049;-55
2022/11/29 00:05:20;;;;;;;12.95;8.13;;;15.70;74.00;;;;;;10365507;28;20030;-55
2022/11/29 00:10:21;;;;;;;14.57;8.50;;;15.70;73.90;;;;;;10363912;28;20105;-54
2022/11/29 00:15:21;;;;;;;14.52;8.40;;;15.60;74.00;;;;;;10378029;28;20092;-54
2022/11/29 00:20:22;;;;;;;12.05;7.72;;;15.60;74.20;;;;;;10394671;28;20046;-54
2022/11/29 00:25:23;;;;;;;10.23;8.57;;;15.60;74.20;;;;;;10364109;28;20022;-53
2022/11/29 00:30:23;;;;;;;12.18;7.90;;;15.60;74.20;;;;;;10364566;28;20034;-54
2022/11/29 00:35:24;;;;;;;13.13;8.65;;;15.70;74.00;;;;;;10377069;28;20119;-53
2022/11/29 00:40:25;;;;;;;11.63;8.07;;;15.70;73.80;;;;;;10404137;28;20033;-55
2022/11/29 00:45:25;;;;;;;13.48;8.30;;;15.70;73.70;;;;;;10403934;28;20112;-55
2022/11/29 00:50:26;;;;;;;11.02;7.88;;;15.70;73.80;;;;;;10368220;28;20101;-55
2022/11/29 00:55:27;;;;;;;13.57;7.78;;;15.80;73.70;;;;;;10362017;28;20125;-55
2022/11/29 01:00:28;;;;;;;12.10;7.45;;;15.80;73.60;;;;;;10403733;28;20100;-54
2022/11/29 01:05:30;;;;;;;14.32;9.20;;;15.80;73.50;;;;;;10388308;28;20133;-53
2022/11/29 01:10:31;;;;;;;13.93;8.88;;;15.80;73.50;;;;;;10353503;28;20084;-58
2022/11/29 01:15:32;;;;;;;13.32;8.50;;;15.70;73.50;;;;;;10379248;28;20118;-52
2022/11/29 01:20:32;;;;;;;12.57;8.15;;;15.70;73.50;;;;;;10409609;28;20029;-56
2022/11/29 01:25:33;;;;;;;12.38;8.95;;;15.70;73.50;;;;;;10385940;28;20843;-53
2022/11/29 01:30:35;;;;;;;11.27;8.10;;;15.70;73.50;;;;;;10409861;28;20064;-54
2022/11/29 01:35:36;;;;;;;13.27;8.45;;;15.70;73.60;;;;;;10393096;28;20103;-54
2022/11/29 01:40:37;;;;;;;13.55;8.18;;;15.80;73.50;;;;;;10370154;28;20104;-53
2022/11/29 01:45:38;;;;;;;12.52;8.32;;;15.80;73.20;;;;;;10385955;28;20046;-54
2022/11/29 01:50:41;;;;;;;12.73;8.20;;;15.80;73.20;;;;;;10384160;28;20050;-55
2022/11/29 01:55:51;;;;;;;16.48;9.30;;;15.80;73.10;;;;;;10377683;28;20078;-54
2022/11/29 02:00:51;;;;;;;14.32;8.77;;;15.80;73.20;;;;;;10408715;28;20030;-55
2022/11/29 02:05:53;;;;;;;13.70;8.57;;;15.80;73.20;;;;;;10392438;28;20819;-54
2022/11/29 02:11:31;;;;;;;13.70;8.80;;;15.70;73.30;;;;;;10361059;28;20084;-54
2022/11/29 02:16:46;;;;;;;12.73;8.88;;;15.70;73.30;;;;;;10413401;28;20026;-53
2022/11/29 02:22:45;;;;;;;12.27;8.60;;;15.70;73.30;;;;;;10381594;28;20091;-53
2022/11/29 02:28:29;;;;;;;13.88;8.45;;;15.70;73.20;;;;;;10375178;28;20044;-53
2022/11/29 02:34:06;;;;;;;13.23;8.50;;;15.80;73.00;;;;;;10355047;28;20026;-54
2022/11/29 02:39:28;;;;;;;15.15;8.85;;;15.80;72.80;;;;;;10381130;28;20034;-54
2022/11/29 02:44:48;;;;;;;14.02;9.57;;;15.80;72.80;;;;;;10398530;28;20946;-55
2022/11/29 02:50:10;;;;;;;;;;;15.80;72.80;;;;;;10367927;28;20369;-55
2022/11/29 02:55:26;;;;;;;12.80;7.88;;;15.80;72.80;;;;;;10381423;28;19955;-53
2022/11/29 03:00:27;;;;;;;13.50;9.27;;;15.80;72.80;;;;;;10406166;28;20025;-54
2022/11/29 03:05:40;;;;;;;15.88;10.50;;;15.80;73.30;;;;;;10382920;28;20021;-53
2022/11/29 03:11:19;;;;;;;12.32;8.82;;;15.80;72.60;;;;;;10406131;28;20026;-53
2022/11/29 03:16:54;;;;;;;12.50;8.52;;;15.80;72.60;;;;;;10403295;28;20463;-52
2022/11/29 03:22:18;;;;;;;15.25;8.57;;;15.80;72.70;;;;;;10387013;28;20018;-55
2022/11/29 03:27:59;;;;;;;12.95;8.30;;;15.80;72.70;;;;;;10375426;28;20153;-54
2022/11/29 03:33:33;;;;;;;13.38;9.43;;;15.80;72.70;;;;;;10364276;28;20029;-53
2022/11/29 03:38:45;;;;;;;14.52;9.68;;;15.80;72.50;;;;;;10357797;28;20056;-54
2022/11/29 03:43:53;;;;;;;13.30;8.82;;;15.80;72.40;;;;;;10362711;28;20040;-54
2022/11/29 03:49:02;;;;;;;16.48;9.57;;;15.80;72.50;;;;;;10393676;28;20022;-55
2022/11/29 03:54:14;;;;;;;15.20;10.77;;;15.80;72.50;;;;;;10396555;28;20038;-54
2022/11/29 03:59:47;;;;;;;14.60;9.40;;;15.90;72.40;;;;;;10354708;28;20057;-58
2022/11/29 04:05:20;;;;;;;13.45;8.48;;;15.90;72.30;;;;;;10364467;28;20042;-54
2022/11/29 04:10:51;;;;;;;12.68;8.50;;;15.90;72.20;;;;;;10364832;28;20416;-53
2022/11/29 04:16:30;;;;;;;14.60;9.52;;;15.90;72.30;;;;;;10371762;28;20037;-53
2022/11/29 04:22:35;;;;;;;14.98;8.77;;;15.80;72.40;;;;;;10387365;28;20449;-54
2022/11/29 04:27:52;;;;;;;16.85;9.30;;;15.80;72.50;;;;;;10399889;28;20016;-53
2022/11/29 04:33:43;;;;;;;16.20;10.02;;;15.80;72.50;;;;;;10391654;28;20112;-53
2022/11/29 04:39:11;;;;;;;12.18;9.18;;;15.80;72.60;;;;;;10361421;28;20057;-53
2022/11/29 04:44:48;;;;;;;15.00;9.38;;;15.70;72.50;;;;;;10366550;28;20484;-51
2022/11/29 04:50:06;;;;;;;16.67;8.80;;;15.70;72.50;;;;;;10378631;28;20121;-54
2022/11/29 04:55:34;;;;;;;16.08;9.65;;;15.80;73.30;;;;;;10363449;28;20034;-55
2022/11/29 05:01:04;;;;;;;13.25;9.20;;;15.80;73.30;;;;;;10376322;28;20021;-54
2022/11/29 05:06:39;;;;;;;12.02;8.80;;;15.80;73.70;;;;;;10376858;28;20025;-55
2022/11/29 05:12:07;;;;;;;14.75;8.63;;;15.80;73.50;;;;;;10385959;28;20037;-54
2022/11/29 05:17:25;;;;;;;13.73;9.90;;;15.70;73.30;;;;;;10398797;28;20049;-53
2022/11/29 05:22:57;;;;;;;12.20;8.00;;;15.70;73.40;;;;;;10387537;28;20507;-55
2022/11/29 05:28:14;;;;;;;13.30;8.68;;;15.70;73.30;;;;;;10371666;28;20033;-52
2022/11/29 05:33:55;;;;;;;12.50;7.97;;;15.70;73.10;;;;;;10358234;28;20073;-54
2022/11/29 05:39:31;;;;;;;11.50;7.50;;;15.70;73.00;;;;;;10406314;28;20044;-53
2022/11/29 05:45:10;;;;;;;15.75;8.52;;;15.70;73.00;;;;;;10401579;28;20033;-54
2022/11/29 05:50:40;;;;;;;13.55;8.30;;;15.70;72.70;;;;;;10376164;28;20011;-54
2022/11/29 05:55:52;;;;;;;11.50;8.00;;;15.80;72.60;;;;;;10386775;28;20036;-55
2022/11/29 06:01:02;;;;;;;14.43;7.80;;;15.80;72.80;;;;;;10410215;28;20083;-53
2022/11/29 06:06:46;;;;;;;21.13;8.38;;;15.80;72.60;;;;;;10388323;28;20144;-55
2022/11/29 06:12:20;;;;;;;13.10;7.63;;;15.90;73.10;;;;;;10365280;28;20076;-53
2022/11/29 06:17:51;;;;;;;15.48;8.50;;;16.00;73.10;;;;;;10398367;28;20633;-51
2022/11/29 06:23:24;;;;;;;18.73;8.52;;;16.10;74.30;;;;;;10393864;28;20025;-54
2022/11/29 06:29:18;;;;;;;15.00;7.75;;;16.10;74.30;;;;;;10407325;28;20053;-56
2022/11/29 06:35:04;;;;;;;19.27;8.27;;;16.10;73.40;;;;;;10402678;28;20474;-55
2022/11/29 06:40:09;;;;;;;23.38;7.75;;;16.10;73.50;;;;;;10372385;28;20030;-53
2022/11/29 06:45:13;;;;;;;22.33;9.57;;;16.10;73.80;;;;;;10387038;28;20029;-53
2022/11/29 06:50:44;;;;;;;21.23;8.70;;;16.00;73.80;;;;;;10379647;28;20685;-56
2022/11/29 06:56:21;;;;;;;18.85;8.40;;;16.10;74.00;;;;;;10379700;28;20033;-55
2022/11/29 07:01:46;;;;;;;21.95;7.70;;;16.10;74.20;;;;;;10374968;28;20592;-55
2022/11/29 07:06:47;;;;;;;20.20;8.13;;;16.10;74.50;;;;;;10394619;28;20033;-53
2022/11/29 07:11:47;;;;;;;22.15;9.05;;;16.00;74.10;;;;;;10396074;28;20064;-56
2022/11/29 07:17:17;;;;;;;20.52;9.20;;;16.10;74.00;;;;;;10394310;28;20060;-55
2022/11/29 07:22:54;;;;;;;18.80;7.95;;;16.00;74.10;;;;;;10381985;28;20560;-55
2022/11/29 07:28:17;;;;;;;16.48;8.93;;;15.90;74.00;;;;;;10401612;28;20067;-55
2022/11/29 07:33:40;;;;;;;20.63;8.02;;;15.80;74.00;;;;;;10406689;28;20017;-54
2022/11/29 07:39:10;;;;;;;22.20;8.80;;;15.70;74.20;;;;;;10372931;28;20139;-54
2022/11/29 07:44:45;;;;;;;16.20;7.03;;;15.70;74.20;;;;;;10370571;28;20076;-55
2022/11/29 07:49:45;;;;;;;15.20;7.95;;;15.70;74.60;;;;;;10382715;28;20846;-52
2022/11/29 07:54:46;;;;;;;22.20;9.70;;;15.70;74.70;;;;;;10373698;28;20116;-56
2022/11/29 07:59:47;;;;;;;16.73;7.28;;;15.70;74.80;;;;;;10400625;28;20025;-56
2022/11/29 08:04:48;;;;;;;19.60;8.27;;;15.70;74.80;;;;;;10391784;28;20044;-55
2022/11/29 08:09:49;;;;;;;14.50;7.70;;;15.70;74.50;;;;;;10365564;28;20421;-57
2022/11/29 08:14:49;;;;;;;16.08;7.97;;;15.60;74.30;;;;;;10380274;28;20037;-55
2022/11/29 08:19:50;;;;;;;13.73;6.40;;;15.60;74.80;;;;;;10385191;28;20116;-55
2022/11/29 08:24:51;;;;;;;19.88;9.00;;;15.60;74.10;;;;;;10369564;28;20531;-55
2022/11/29 08:29:52;;;;;;;15.85;7.10;;;15.60;73.80;;;;;;10378773;28;20137;-55
2022/11/29 08:34:53;;;;;;;11.63;6.40;;;15.70;73.70;;;;;;10380102;28;20050;-54
2022/11/29 08:39:54;;;;;;;13.02;6.72;;;15.70;73.60;;;;;;10388155;28;20470;-55
2022/11/29 08:44:55;;;;;;;12.00;6.93;;;15.60;74.10;;;;;;10380986;28;20022;-55
2022/11/29 08:50:01;;;;;;;14.80;7.72;;;15.70;73.40;;;;;;10376023;28;20029;-54
2022/11/29 08:55:02;;;;;;;12.18;6.72;;;15.70;73.20;;;;;;10375184;28;20030;-56
2022/11/29 09:00:05;;;;;;;10.00;6.63;;;15.70;73.00;;;;;;10375633;28;20026;-56
2022/11/29 09:05:07;;;;;;;12.57;6.32;;;15.70;73.10;;;;;;10375103;28;20421;-56
2022/11/29 09:10:09;;;;;;;11.05;5.88;;;15.70;73.00;;;;;;10400830;28;20030;-56
2022/11/29 09:15:10;;;;;;;11.65;6.57;;;15.80;72.70;;;;;;10390028;28;20092;-55
2022/11/29 09:20:11;;;;;;;13.40;6.90;;;15.80;72.50;;;;;;10364272;28;20052;-55
2022/11/29 09:25:12;;;;;;;14.27;7.60;;;15.80;72.50;;;;;;10377571;28;20037;-56
2022/11/29 09:30:13;;;;;;;10.23;5.85;;;15.80;72.50;;;;;;10388631;28;20117;-56
2022/11/29 09:35:14;;;;;;;8.10;4.95;;;15.80;72.60;;;;;;10373216;28;20077;-56
2022/11/29 09:40:24;;;;;;;9.90;6.40;;;15.80;72.70;;;;;;10386761;28;20020;-55
2022/11/29 09:45:31;;;;;;;9.95;5.57;;;15.70;72.70;;;;;;10373908;28;20040;-55
2022/11/29 09:50:35;;;;;;;9.88;5.18;;;15.70;72.70;;;;;;10379423;28;20022;-56
2022/11/29 09:55:57;;;;;;;10.73;5.60;;;15.80;72.60;;;;;;10391741;28;20079;-53
2022/11/29 10:01:11;;;;;;;12.60;6.03;;;15.80;72.40;;;;;;10412559;28;20523;-56
2022/11/29 10:06:31;;;;;;;11.00;5.38;;;15.80;72.40;;;;;;10380503;28;20033;-56
2022/11/29 10:11:42;;;;;;;;;;;15.70;72.50;;;;;;10370504;28;20477;-54
2022/11/29 10:17:34;;;;;;;9.07;4.75;;;15.80;72.60;;;;;;10362506;28;19924;-57
2022/11/29 10:23:12;;;;;;;8.98;5.70;;;15.90;72.20;;;;;;10417071;28;20079;-56
2022/11/29 10:28:22;;;;;;;13.90;5.88;;;15.90;72.10;;;;;;10370915;28;20025;-55
2022/11/29 10:33:29;;;;;;;7.97;4.25;;;15.90;72.10;;;;;;10340744;28;20083;-54
2022/11/29 10:38:29;;;;;;;9.02;6.05;;;15.90;72.20;;;;;;10403826;28;20045;-54
2022/11/29 10:43:30;;;;;;;8.40;4.65;;;15.80;72.20;;;;;;10373410;28;20113;-55
2022/11/29 10:48:33;;;;;;;8.50;5.53;;;15.80;72.20;;;;;;10366002;28;20377;-55
2022/11/29 10:53:37;;;;;;;9.00;4.68;;;15.70;72.20;;;;;;10381714;28;20030;-56
2022/11/29 10:58:55;;;;;;;9.70;4.82;;;15.80;72.30;;;;;;10400454;28;20038;-55
2022/11/29 11:03:59;;;;;;;7.90;4.47;;;15.80;72.10;;;;;;10393747;28;20501;-55
2022/11/29 11:09:35;;;;;;;8.38;4.75;;;15.90;71.90;;;;;;10365881;28;20049;-55
2022/11/29 11:14:37;;;;;;;7.47;5.00;;;15.80;72.00;;;;;;10369493;28;20124;-54
2022/11/29 11:19:38;;;;;;;9.75;5.20;;;15.80;72.10;;;;;;10366301;28;20036;-53
2022/11/29 11:24:40;;;;;;;8.10;4.75;;;15.80;72.20;;;;;;10403268;28;20572;-55
2022/11/29 11:29:43;;;;;;;9.02;5.68;;;15.90;71.80;;;;;;10390367;28;20032;-54
2022/11/29 11:34:58;;;;;;;9.25;4.88;;;15.90;71.80;;;;;;10365604;28;20042;-55
2022/11/29 11:40:25;;;;;;;10.82;4.97;;;16.00;71.10;;;;;;10378521;28;20441;-54
2022/11/29 11:45:33;;;;;;;9.05;6.18;;;16.00;72.10;;;;;;10384064;28;20026;-55
2022/11/29 11:50:55;;;;;;;10.45;5.78;;;16.10;72.30;;;;;;10383712;28;20088;-55
2022/11/29 11:56:11;;;;;;;11.00;5.38;;;16.10;72.50;;;;;;10354520;28;20612;-53
2022/11/29 12:01:11;;;;;;;10.77;4.97;;;16.10;72.10;;;;;;10404176;28;20025;-55
2022/11/29 12:06:37;;;;;;;8.32;4.82;;;16.10;71.90;;;;;;10381075;28;20567;-54
2022/11/29 12:12:11;;;;;;;9.48;4.80;;;16.00;71.90;;;;;;10376503;28;20103;-54
2022/11/29 12:17:40;;;;;;;12.07;5.78;;;16.00;72.00;;;;;;10396242;28;20041;-54
2022/11/29 12:23:10;;;;;;;8.60;5.32;;;15.90;72.00;;;;;;10369589;28;20050;-53
2022/11/29 12:28:13;;;;;;;10.20;6.20;;;15.90;72.10;;;;;;10359426;28;20053;-55
2022/11/29 12:33:48;;;;;;;8.60;4.53;;;15.90;72.10;;;;;;10382813;28;20517;-55
2022/11/29 12:39:12;;;;;;;7.68;5.07;;;15.90;72.20;;;;;;10404618;28;20080;-55
2022/11/29 12:44:25;;;;;;;7.05;3.97;;;15.90;72.20;;;;;;10389024;28;20057;-53
2022/11/29 12:49:51;;;;;;;8.02;4.50;;;15.80;72.30;;;;;;10385340;28;20025;-55
2022/11/29 12:55:43;;;;;;;8.52;4.82;;;15.90;72.60;;;;;;10397025;28;20038;-54
2022/11/29 13:01:26;;;;;;;9.45;4.50;;;15.80;72.60;;;;;;10367595;28;20045;-53
2022/11/29 13:06:53;;;;;;;9.93;4.05;;;15.70;72.50;;;;;;10430987;28;20018;-55
2022/11/29 13:12:12;;;;;;;7.60;4.15;;;15.70;72.60;;;;;;10366755;28;20064;-52
2022/11/29 13:17:24;;;;;;;12.38;4.45;;;15.70;73.30;;;;;;10414442;28;20052;-56
2022/11/29 13:22:30;;;;;;;10.73;5.03;;;15.70;73.10;;;;;;10375103;28;20109;-56
2022/11/29 13:27:41;;;;;;;12.32;4.45;;;15.60;73.80;;;;;;10372760;28;20374;-58
2022/11/29 13:32:57;;;;;;;12.02;5.03;;;15.60;73.30;;;;;;10393299;28;20021;-55
2022/11/29 13:38:11;;;;;;;12.70;4.68;;;15.70;73.60;;;;;;10409853;28;20042;-55
2022/11/29 13:43:28;;;;;;;17.25;5.75;;;15.70;73.80;;;;;;10390490;28;20085;-56
2022/11/29 13:48:34;;;;;;;10.57;4.30;;;15.80;73.50;;;;;;10385201;28;20029;-55
2022/11/29 13:53:42;;;;;;;12.15;5.35;;;16.00;73.40;;;;;;10406321;28;20034;-53
2022/11/29 13:58:43;;;;;;;12.27;5.85;;;16.10;74.20;;;;;;10386449;28;20029;-54
2022/11/29 14:03:59;;;;;;;16.73;8.23;;;16.10;74.10;;;;;;10395313;28;20021;-54
2022/11/29 14:09:25;;;;;;;14.77;8.05;;;16.20;73.80;;;;;;10410365;28;20021;-55
2022/11/29 14:14:47;;;;;;;17.50;7.50;;;16.40;72.70;;;;;;10378267;28;20044;-54
2022/11/29 14:19:48;;;;;;;18.60;8.20;;;16.10;73.30;;;;;;10388043;28;20022;-54
2022/11/29 14:25:24;;;;;;;16.85;7.65;;;16.00;73.80;;;;;;10383250;28;20030;-54
2022/11/29 14:30:41;;;;;;;20.52;7.10;;;15.80;74.50;;;;;;10403640;28;20031;-55
2022/11/29 14:35:48;;;;;;;13.18;7.70;;;15.80;74.30;;;;;;10378105;28;20057;-54
2022/11/29 14:41:00;;;;;;;15.98;7.78;;;15.70;74.30;;;;;;10368076;28;20025;-52
2022/11/29 14:46:15;;;;;;;14.52;6.60;;;15.60;74.40;;;;;;10365529;28;20661;-54
2022/11/29 14:51:18;;;;;;;12.50;7.43;;;15.60;74.30;;;;;;10378251;28;20406;-55
2022/11/29 14:56:31;;;;;;;15.10;7.53;;;15.60;74.30;;;;;;10370663;28;20116;-55
2022/11/29 15:01:33;;;;;;;13.65;6.80;;;15.60;74.10;;;;;;10387113;28;20029;-54
2022/11/29 15:06:35;;;;;;;12.70;7.88;;;15.70;73.90;;;;;;10377069;28;20087;-53
2022/11/29 15:12:25;;;;;;;15.30;7.13;;;15.60;73.80;;;;;;10399863;28;20026;-52
2022/11/29 15:18:12;;;;;;;12.00;7.53;;;15.60;73.80;;;;;;10355515;28;20527;-55
2022/11/29 15:23:17;;;;;;;14.20;8.65;;;15.60;73.90;;;;;;10389156;28;20116;-54
2022/11/29 15:28:27;;;;;;;16.30;8.45;;;16.20;72.60;;;;;;10383783;28;20073;-55
2022/11/29 15:33:28;;;;;;;19.13;9.23;;;16.50;73.90;;;;;;10386191;28;20085;-60
2022/11/29 15:38:39;;;;;;;14.07;9.45;;;16.70;76.50;;;;;;10385224;28;20137;-53
2022/11/29 15:43:40;;;;;;;15.55;10.57;;;16.70;77.00;;;;;;10382456;28;20436;-54
2022/11/29 15:48:40;;;;;;;18.83;15.25;;;16.70;76.90;;;;;;10392017;28;20113;-55
2022/11/29 15:54:00;;;;;;;26.13;22.88;;;16.60;76.30;;;;;;10375575;28;20821;-54
2022/11/29 15:59:27;;;;;;;20.15;13.88;;;16.50;75.60;;;;;;10393245;28;20129;-57
2022/11/29 16:04:29;;;;;;;19.70;15.48;;;16.40;75.80;;;;;;10378880;28;20030;-53
2022/11/29 16:09:39;;;;;;;17.35;14.48;;;16.20;76.10;;;;;;10363444;28;20030;-54
2022/11/29 16:14:55;;;;;;;21.75;15.10;;;16.10;76.20;;;;;;10377460;28;20030;-55
2022/11/29 16:20:15;;;;;;;16.30;13.70;;;16.10;76.30;;;;;;10390001;28;20096;-53
2022/11/29 16:25:19;;;;;;;23.17;16.05;;;16.00;76.30;;;;;;10359501;28;20018;-54
2022/11/29 16:30:26;;;;;;;19.13;15.13;;;15.90;76.10;;;;;;10335813;28;20454;-53
2022/11/29 16:35:30;;;;;;;21.65;14.07;;;15.90;76.10;;;;;;10395806;28;20403;-55
2022/11/29 16:40:34;;;;;;;21.75;14.38;;;15.80;75.80;;;;;;10380595;28;20026;-54
2022/11/29 16:45:38;;;;;;;20.17;13.35;;;16.00;75.50;;;;;;10369386;28;20026;-53
2022/11/29 16:50:39;;;;;;;24.55;13.93;;;16.10;76.10;;;;;;10362828;28;20029;-53
2022/11/29 16:55:40;;;;;;;17.80;12.95;;;16.30;77.90;;;;;;10374940;28;20042;-55
2022/11/29 17:00:41;;;;;;;21.50;13.57;;;16.20;77.60;;;;;;10370898;28;20049;-55
2022/11/29 17:05:42;;;;;;;21.25;12.75;;;16.20;77.70;;;;;;10370848;28;20053;-55
2022/11/29 17:10:42;;;;;;;17.63;13.13;;;16.20;77.30;;;;;;10361401;28;20061;-54
2022/11/29 17:15:43;;;;;;;17.40;12.45;;;16.10;76.60;;;;;;10370768;28;20747;-55
2022/11/29 17:20:44;;;;;;;17.92;12.40;;;16.00;76.70;;;;;;10365004;28;20100;-55
2022/11/29 17:25:54;;;;;;;20.77;13.27;;;15.90;76.50;;;;;;10352805;28;20030;-56
2022/11/29 17:30:54;;;;;;;16.55;11.77;;;15.90;76.30;;;;;;10361932;28;20109;-54
2022/11/29 17:35:55;;;;;;;15.38;12.10;;;15.90;76.30;;;;;;10374453;28;20656;-55
2022/11/29 17:40:56;;;;;;;22.95;13.93;;;16.00;76.10;;;;;;10364129;28;20064;-54
2022/11/29 17:45:56;;;;;;;22.33;11.13;;;16.00;75.90;;;;;;10367571;28;20529;-53
2022/11/29 17:51:00;;;;;;;18.80;10.68;;;16.10;76.40;;;;;;10374580;28;20103;-53
2022/11/29 17:56:14;;;;;;;24.65;10.57;;;16.20;75.70;;;;;;10408817;28;20060;-53
2022/11/29 18:01:17;;;;;;;19.02;9.93;;;16.40;75.40;;;;;;10410386;28;20056;-54
2022/11/29 18:06:21;;;;;;;13.00;9.02;;;16.50;75.00;;;;;;10387056;28;20095;-54
2022/11/29 18:11:24;;;;;;;20.92;9.32;;;16.60;74.70;;;;;;10380487;28;20354;-56
2022/11/29 18:16:29;;;;;;;15.05;9.70;;;16.60;74.60;;;;;;10375018;28;20026;-56
2022/11/29 18:21:31;;;;;;;14.65;10.48;;;16.60;74.50;;;;;;10406268;28;20042;-55
2022/11/29 18:26:34;;;;;;;19.05;16.23;;;16.60;74.80;;;;;;10368061;28;20026;-55
2022/11/29 18:31:38;;;;;;;19.27;11.73;;;16.50;75.00;;;;;;10382675;28;20041;-56
2022/11/29 18:36:47;;;;;;;16.55;10.98;;;16.50;74.90;;;;;;10370217;28;20049;-53
2022/11/29 18:41:49;;;;;;;14.70;10.30;;;16.50;75.20;;;;;;10371599;28;20026;-55
2022/11/29 18:46:49;;;;;;;16.55;11.07;;;16.40;75.30;;;;;;10365307;28;20029;-53
2022/11/29 18:51:50;;;;;;;15.98;10.88;;;16.40;75.80;;;;;;10369682;28;20129;-53
2022/11/29 18:56:51;;;;;;;14.23;11.65;;;16.40;75.60;;;;;;10381777;28;20578;-54
2022/11/29 19:01:51;;;;;;;14.93;10.70;;;16.30;75.50;;;;;;10382994;28;20092;-56
2022/11/29 19:06:52;;;;;;;20.35;10.80;;;16.20;75.60;;;;;;10363476;28;20104;-54
2022/11/29 19:11:52;;;;;;;14.35;10.30;;;16.20;76.40;;;;;;10377022;28;20101;-56
2022/11/29 19:16:53;;;;;;;13.90;10.45;;;16.20;76.70;;;;;;10379121;28;20115;-55
2022/11/29 19:21:54;;;;;;;16.73;10.02;;;16.20;76.80;;;;;;10387209;28;20054;-55
2022/11/29 19:26:55;;;;;;;16.38;10.13;;;16.20;76.70;;;;;;10367948;28;20826;-54
2022/11/29 19:31:55;;;;;;;12.18;9.80;;;16.20;76.10;;;;;;10343114;28;20048;-53
2022/11/29 19:36:56;;;;;;;15.98;10.60;;;16.10;76.00;;;;;;10368273;28;20044;-55
2022/11/29 19:41:57;;;;;;;12.13;9.07;;;16.00;76.10;;;;;;10365954;28;20172;-55
2022/11/29 19:46:58;;;;;;;12.18;10.73;;;16.00;76.20;;;;;;10363741;28;20072;-55
2022/11/29 19:51:58;;;;;;;14.82;9.93;;;15.90;76.20;;;;;;10366964;28;20010;-56
2022/11/29 19:57:00;;;;;;;10.80;9.52;;;15.80;76.20;;;;;;10387278;28;20069;-56
2022/11/29 20:02:01;;;;;;;12.20;10.15;;;15.80;76.30;;;;;;10381814;28;20024;-56
2022/11/29 20:07:02;;;;;;;11.65;9.05;;;15.80;76.20;;;;;;10383422;28;20029;-49
2022/11/29 20:12:03;;;;;;;11.05;9.32;;;15.70;76.20;;;;;;10382729;28;20457;-52
2022/11/29 20:17:03;;;;;;;10.38;8.90;;;15.70;76.10;;;;;;10385670;28;20052;-53
2022/11/29 20:22:04;;;;;;;12.27;10.02;;;15.70;76.10;;;;;;10385962;28;20744;-52
2022/11/29 20:27:04;;;;;;;10.68;9.60;;;15.70;76.10;;;;;;10389742;28;20104;-54
2022/11/29 20:32:05;;;;;;;11.45;9.25;;;15.60;76.00;;;;;;10393063;28;20104;-53
2022/11/29 20:37:59;;;;;;;9.50;7.82;;;15.60;76.00;;;;;;10370966;28;20049;-52
2022/11/29 20:43:18;;;;;;;10.05;7.78;;;15.60;75.90;;;;;;10390549;28;20045;-52
2022/11/29 20:48:21;;;;;;;9.30;7.73;;;15.70;75.50;;;;;;10377717;28;20041;-51
2022/11/29 20:53:39;;;;;;;7.95;7.13;;;15.70;75.40;;;;;;10375740;28;20716;-53
2022/11/29 20:58:40;;;;;;;7.82;6.93;;;15.60;75.40;;;;;;10368144;28;20069;-52
2022/11/29 21:03:40;;;;;;;11.63;7.22;;;15.70;75.30;;;;;;10370110;28;20598;-52
2022/11/29 21:08:41;;;;;;;8.05;6.60;;;15.80;75.00;;;;;;10386853;28;20018;-55
2022/11/29 21:13:42;;;;;;;11.13;8.98;;;15.80;74.80;;;;;;10369411;28;20026;-53
2022/11/29 21:18:43;;;;;;;9.77;7.03;;;15.80;74.80;;;;;;10398572;28;20026;-52
2022/11/29 21:23:54;;;;;;;8.70;7.22;;;15.80;74.80;;;;;;10377942;28;20041;-52
2022/11/29 21:29:17;;;;;;;8.40;7.40;;;15.80;74.60;;;;;;10400385;28;20014;-51
2022/11/29 21:34:19;;;;;;;7.43;6.63;;;15.80;74.50;;;;;;10395156;28;20723;-53
2022/11/29 21:39:20;;;;;;;7.25;5.43;;;15.80;74.40;;;;;;10410897;28;20133;-51
2022/11/29 21:44:20;;;;;;;12.07;7.25;;;15.90;74.30;;;;;;10407636;28;20046;-53
2022/11/29 21:49:21;;;;;;;8.50;7.32;;;15.90;74.20;;;;;;10369876;28;20434;-51
2022/11/29 21:54:22;;;;;;;7.57;5.97;;;15.90;74.20;;;;;;10372809;28;20117;-53
2022/11/29 21:59:26;;;;;;;12.27;6.55;;;15.80;74.20;;;;;;10409059;28;20033;-54
2022/11/29 22:04:27;;;;;;;7.53;6.38;;;15.80;74.20;;;;;;10410548;28;20035;-53
2022/11/29 22:09:28;;;;;;;7.13;5.35;;;15.80;74.30;;;;;;10382098;28;20033;-53
2022/11/29 22:14:29;;;;;;;8.55;6.10;;;15.80;74.20;;;;;;10379593;28;20037;-53
2022/11/29 22:19:33;;;;;;;9.98;5.97;;;15.80;74.00;;;;;;10384551;28;20448;-53
2022/11/29 22:24:35;;;;;;;6.82;5.70;;;15.90;74.00;;;;;;10360621;28;20054;-52
2022/11/29 22:29:36;;;;;;;8.60;5.82;;;15.80;73.90;;;;;;10367334;28;20024;-53
2022/11/29 22:34:36;;;;;;;7.25;5.68;;;15.80;73.90;;;;;;10363189;28;20049;-54
2022/11/29 22:39:37;;;;;;;8.40;5.57;;;15.80;74.00;;;;;;10374717;28;20020;-53
2022/11/29 22:44:38;;;;;;;7.70;6.32;;;15.80;74.10;;;;;;10407238;28;20068;-50
2022/11/29 22:49:38;;;;;;;7.13;5.15;;;15.80;73.90;;;;;;10379853;28;20109;-53
2022/11/29 22:54:39;;;;;;;6.72;5.07;;;15.80;73.70;;;;;;10408591;28;20035;-54
2022/11/29 22:59:40;;;;;;;6.00;4.45;;;15.80;73.60;;;;;;10391603;28;20078;-54
2022/11/29 23:04:40;;;;;;;6.20;4.85;;;15.90;73.70;;;;;;10366929;28;20117;-53
2022/11/29 23:09:41;;;;;;;6.93;4.93;;;15.80;73.70;;;;;;10394813;28;20088;-53
2022/11/29 23:14:41;;;;;;;6.95;4.97;;;15.80;73.80;;;;;;10376265;28;20485;-51
2022/11/29 23:19:42;;;;;;;7.32;4.60;;;15.80;73.80;;;;;;10391503;28;20097;-53
2022/11/29 23:24:43;;;;;;;5.30;4.40;;;15.80;73.70;;;;;;10352334;28;20104;-52
2022/11/29 23:29:43;;;;;;;6.68;4.72;;;15.80;73.50;;;;;;10392228;28;20712;-54
2022/11/29 23:34:44;;;;;;;7.00;5.10;;;15.90;73.30;;;;;;10375840;28;20561;-51
2022/11/29 23:39:45;;;;;;;5.32;4.30;;;15.90;73.20;;;;;;10400779;28;20109;-52
2022/11/29 23:44:45;;;;;;;5.07;4.18;;;15.90;73.20;;;;;;10389858;28;20160;-53
2022/11/29 23:49:46;;;;;;;6.53;4.60;;;15.90;73.30;;;;;;10378632;28;20096;-52
2022/11/29 23:54:47;;;;;;;6.50;4.30;;;15.80;73.30;;;;;;10365028;28;20065;-52
2022/11/29 23:59:48;;;;;;;5.18;3.80;;;15.90;73.20;;;;;;10365667;28;20493;-50
